createdAt,value
2022-11-13T00:00:02.669Z,23.30
2022-11-13T00:03:09.707Z,21.90
2022-11-13T00:06:01.907Z,22.40
2022-11-13T00:08:53.492Z,21.90
2022-11-13T00:11:40.608Z,22.40
2022-11-13T00:14:27.813Z,22.00
2022-11-13T00:17:15.027Z,18.00
2022-11-13T00:20:02.622Z,19.10
2022-11-13T00:22:49.748Z,20.80
2022-11-13T00:25:36.868Z,20.40
2022-11-13T00:28:24.454Z,20.20
2022-11-13T00:31:14.218Z,16.30
2022-11-13T00:34:19.622Z,16.00
2022-11-13T00:37:07.964Z,16.20
2022-11-13T00:39:59.508Z,17.60
2022-11-13T00:42:46.386Z,18.20
2022-11-13T00:45:33.201Z,18.50
2022-11-13T00:48:20.394Z,17.90
2022-11-13T00:51:07.922Z,17.80
2022-11-13T00:53:55.026Z,20.70
2022-11-13T00:56:41.734Z,19.50
2022-11-13T00:59:28.873Z,20.30
2022-11-13T01:02:15.838Z,20.80
2022-11-13T01:05:02.923Z,20.60
2022-11-13T01:07:49.631Z,19.70
2022-11-13T01:10:43.026Z,20.20
2022-11-13T01:13:30.097Z,18.90
2022-11-13T01:16:18.529Z,17.50
2022-11-13T01:19:05.418Z,17.10
2022-11-13T01:21:52.683Z,15.90
2022-11-13T01:24:39.501Z,14.40
2022-11-13T01:27:26.526Z,14.30
2022-11-13T01:30:13.363Z,14.90
2022-11-13T01:33:00.326Z,14.40
2022-11-13T01:35:47.647Z,15.00
2022-11-13T01:38:36.829Z,14.60
2022-11-13T01:41:25.664Z,14.70
2022-11-13T01:44:17.968Z,16.60
2022-11-13T01:47:05.266Z,17.60
2022-11-13T01:49:56.355Z,18.00
2022-11-13T01:52:43.687Z,19.00
2022-11-13T01:55:30.551Z,20.10
2022-11-13T01:58:17.335Z,18.30
2022-11-13T02:01:04.343Z,21.00
2022-11-13T02:03:51.083Z,22.00
2022-11-13T02:06:46.039Z,21.00
2022-11-13T02:09:40.507Z,21.50
2022-11-13T02:12:35.818Z,22.10
2022-11-13T02:15:26.056Z,21.40
2022-11-13T02:18:15.518Z,21.10
2022-11-13T02:21:36.791Z,20.90
2022-11-13T02:24:23.774Z,20.80
2022-11-13T02:27:26.895Z,22.30
2022-11-13T02:30:28.795Z,22.40
2022-11-13T02:33:31.228Z,22.70
2022-11-13T02:36:21.899Z,22.90
2022-11-13T02:39:10.864Z,21.50
2022-11-13T02:41:57.713Z,23.20
2022-11-13T02:44:44.659Z,21.60
2022-11-13T02:47:31.977Z,21.80
2022-11-13T02:50:19.195Z,23.20
2022-11-13T02:53:06.573Z,22.90
2022-11-13T02:55:53.751Z,23.70
2022-11-13T02:58:41.031Z,23.40
2022-11-13T03:01:28.404Z,22.50
2022-11-13T03:04:15.165Z,23.90
2022-11-13T03:07:02.027Z,22.90
2022-11-13T03:09:48.859Z,23.80
2022-11-13T03:12:35.999Z,23.20
2022-11-13T03:15:23.257Z,23.30
2022-11-13T03:18:12.114Z,23.80
2022-11-13T03:21:07.724Z,22.60
2022-11-13T03:23:54.964Z,23.30
2022-11-13T03:26:42.132Z,22.60
2022-11-13T03:29:29.661Z,22.60
2022-11-13T03:32:16.837Z,21.70
2022-11-13T03:35:04.009Z,22.60
2022-11-13T03:37:51.343Z,22.80
2022-11-13T03:40:38.276Z,22.50
2022-11-13T03:43:24.920Z,23.30
2022-11-13T03:46:11.926Z,22.10
2022-11-13T03:48:59.034Z,23.40
2022-11-13T03:51:45.970Z,23.70
2022-11-13T03:54:32.508Z,23.60
2022-11-13T03:57:19.806Z,24.60
2022-11-13T04:00:06.847Z,24.80
2022-11-13T04:02:53.702Z,24.30
2022-11-13T04:05:42.042Z,24.20
2022-11-13T04:08:28.715Z,24.90
2022-11-13T04:11:15.574Z,25.60
2022-11-13T04:14:02.363Z,25.70
2022-11-13T04:16:49.192Z,26.70
2022-11-13T04:19:35.576Z,26.40
2022-11-13T04:22:22.818Z,27.70
2022-11-13T04:25:09.641Z,29.10
2022-11-13T04:27:56.583Z,27.90
2022-11-13T04:30:43.226Z,28.10
2022-11-13T04:33:30.077Z,28.60
2022-11-13T04:36:16.717Z,26.80
2022-11-13T04:39:04.109Z,27.70
2022-11-13T04:42:09.254Z,27.60
2022-11-13T04:44:56.103Z,27.40
2022-11-13T04:47:43.053Z,27.40
2022-11-13T04:50:30.688Z,28.10
2022-11-13T04:53:17.081Z,27.70
2022-11-13T04:56:03.918Z,27.60
2022-11-13T04:58:50.647Z,27.50
2022-11-13T05:01:37.388Z,26.70
2022-11-13T05:04:24.204Z,26.20
2022-11-13T05:07:11.872Z,27.20
2022-11-13T05:09:58.786Z,26.90
2022-11-13T05:12:45.400Z,26.70
2022-11-13T05:15:33.134Z,26.70
2022-11-13T05:18:20.064Z,24.80
2022-11-13T05:21:08.234Z,24.30
2022-11-13T05:23:54.737Z,23.40
2022-11-13T05:26:41.576Z,24.40
2022-11-13T05:29:28.318Z,23.80
2022-11-13T05:32:15.136Z,22.60
2022-11-13T05:35:02.056Z,22.80
2022-11-13T05:37:48.358Z,22.10
2022-11-13T05:40:35.221Z,24.40
2022-11-13T05:43:22.129Z,23.70
2022-11-13T05:46:08.972Z,22.60
2022-11-13T05:49:01.010Z,23.50
2022-11-13T05:51:47.616Z,23.20
2022-11-13T05:54:34.327Z,23.20
2022-11-13T05:57:21.965Z,21.80
2022-11-13T06:00:10.440Z,21.70
2022-11-13T06:02:57.008Z,21.70
2022-11-13T06:05:44.178Z,20.60
2022-11-13T06:08:31.452Z,22.00
2022-11-13T06:11:21.476Z,19.80
2022-11-13T06:14:08.384Z,19.50
2022-11-13T06:16:55.404Z,19.00
2022-11-13T06:19:42.226Z,19.20
2022-11-13T06:22:29.140Z,18.70
2022-11-13T06:25:16.140Z,18.90
2022-11-13T06:28:03.185Z,17.20
2022-11-13T06:30:50.063Z,18.00
2022-11-13T06:33:38.115Z,17.10
2022-11-13T06:36:28.536Z,17.20
2022-11-13T06:39:15.459Z,18.00
2022-11-13T06:42:02.381Z,17.50
2022-11-13T06:44:49.191Z,17.50
2022-11-13T06:47:36.301Z,16.90
2022-11-13T06:50:23.217Z,16.60
2022-11-13T06:53:10.452Z,18.00
2022-11-13T06:55:57.712Z,18.20
2022-11-13T06:58:45.143Z,18.90
2022-11-13T07:01:31.927Z,18.40
2022-11-13T07:04:18.626Z,19.50
2022-11-13T07:07:05.854Z,19.80
2022-11-13T07:09:53.004Z,20.00
2022-11-13T07:12:41.750Z,19.60
2022-11-13T07:15:28.908Z,19.60
2022-11-13T07:18:19.093Z,19.40
2022-11-13T07:21:13.581Z,17.70
2022-11-13T07:24:00.412Z,17.40
2022-11-13T07:26:47.223Z,18.00
2022-11-13T07:29:36.408Z,16.80
2022-11-13T07:32:23.540Z,16.90
2022-11-13T07:35:11.439Z,18.20
2022-11-13T07:37:59.319Z,17.70
2022-11-13T07:40:46.272Z,19.00
2022-11-13T07:43:34.205Z,17.70
2022-11-13T07:46:21.149Z,18.40
2022-11-13T07:49:08.072Z,19.50
2022-11-13T07:51:54.821Z,18.40
2022-11-13T07:54:42.178Z,17.50
2022-11-13T07:57:29.512Z,20.10
2022-11-13T08:00:17.597Z,19.50
2022-11-13T08:03:10.283Z,21.30
2022-11-13T08:06:06.255Z,20.80
2022-11-13T08:08:54.058Z,20.50
2022-11-13T08:11:41.073Z,20.40
2022-11-13T08:14:28.397Z,18.40
2022-11-13T08:17:16.053Z,18.30
2022-11-13T08:20:04.049Z,17.90
2022-11-13T08:22:51.420Z,18.30
2022-11-13T08:25:38.341Z,17.70
2022-11-13T08:28:25.532Z,18.20
2022-11-13T08:31:14.581Z,18.70
2022-11-13T08:34:01.743Z,18.00
2022-11-13T08:36:48.986Z,18.50
2022-11-13T08:39:36.297Z,18.30
2022-11-13T08:42:23.842Z,19.30
2022-11-13T08:45:11.665Z,18.50
2022-11-13T08:48:03.222Z,18.50
2022-11-13T08:50:57.626Z,19.40
2022-11-13T08:56:31.361Z,19.20
2022-11-13T08:59:18.293Z,19.30
2022-11-13T09:02:06.129Z,19.30
2022-11-13T09:04:53.999Z,20.50
2022-11-13T09:07:40.898Z,21.10
2022-11-13T09:10:28.413Z,37.40
2022-11-13T09:13:15.214Z,22.90
2022-11-13T09:16:03.285Z,23.30
2022-11-13T09:18:53.541Z,21.70
2022-11-13T09:21:40.636Z,21.10
2022-11-13T09:24:28.354Z,21.80
2022-11-13T09:27:15.453Z,23.30
2022-11-13T09:30:02.527Z,20.20
2022-11-13T09:32:53.319Z,21.70
2022-11-13T09:35:40.475Z,24.40
2022-11-13T09:38:27.453Z,22.20
2022-11-13T09:41:24.396Z,22.30
2022-11-13T09:44:20.520Z,21.20
2022-11-13T09:47:24.928Z,21.70
2022-11-13T09:50:17.057Z,21.90
2022-11-13T09:53:05.098Z,21.80
2022-11-13T09:56:03.637Z,22.10
2022-11-13T09:59:06.281Z,21.70
2022-11-13T10:02:17.148Z,23.00
2022-11-13T10:05:28.273Z,23.10
2022-11-13T10:08:27.602Z,24.70
2022-11-13T10:11:26.581Z,21.70
2022-11-13T10:14:19.541Z,22.00
2022-11-13T10:17:14.810Z,27.30
2022-11-13T10:20:16.236Z,26.30
2022-11-13T10:23:11.701Z,21.90
2022-11-13T10:26:15.186Z,21.80
2022-11-13T10:29:16.895Z,20.40
2022-11-13T10:32:28.554Z,20.10
2022-11-13T10:35:18.044Z,26.60
2022-11-13T10:38:09.040Z,22.10
2022-11-13T10:41:24.994Z,20.40
2022-11-13T10:44:52.758Z,19.90
2022-11-13T10:48:05.165Z,21.20
2022-11-13T10:50:56.957Z,20.60
2022-11-13T10:53:44.407Z,18.40
2022-11-13T10:56:34.249Z,18.80
2022-11-13T10:59:22.103Z,17.50
2022-11-13T11:02:18.005Z,18.20
2022-11-13T11:05:16.105Z,18.70
2022-11-13T11:08:10.385Z,19.80
2022-11-13T11:11:32.537Z,16.90
2022-11-13T11:14:34.186Z,16.80
2022-11-13T11:17:25.543Z,18.00
2022-11-13T11:20:44.787Z,16.20
2022-11-13T11:23:41.457Z,14.90
2022-11-13T11:26:51.780Z,14.30
2022-11-13T11:29:47.728Z,14.30
2022-11-13T11:32:42.598Z,15.50
2022-11-13T11:35:50.095Z,15.20
2022-11-13T11:38:39.922Z,16.40
2022-11-13T11:41:36.291Z,15.90
2022-11-13T11:44:31.967Z,15.00
2022-11-13T11:47:18.815Z,19.10
2022-11-13T11:50:13.091Z,18.70
2022-11-13T11:56:03.212Z,15.20
2022-11-13T11:59:02.056Z,13.90
2022-11-13T12:02:16.485Z,13.40
2022-11-13T12:05:03.570Z,13.00
2022-11-13T12:07:59.499Z,12.90
2022-11-13T12:11:23.587Z,12.10
2022-11-13T12:14:23.731Z,11.80
2022-11-13T12:17:46.359Z,11.20
2022-11-13T12:20:59.443Z,11.90
2022-11-13T12:24:05.369Z,11.70
2022-11-13T12:27:27.290Z,12.00
2022-11-13T12:30:21.295Z,12.00
2022-11-13T12:34:06.905Z,13.20
2022-11-13T12:36:55.699Z,12.20
2022-11-13T12:39:46.889Z,12.50
2022-11-13T12:42:42.705Z,13.00
2022-11-13T12:45:39.016Z,14.00
2022-11-13T12:48:36.433Z,14.00
2022-11-13T12:51:23.549Z,15.00
2022-11-13T12:54:11.036Z,14.20
2022-11-13T12:57:13.785Z,14.80
2022-11-13T13:00:23.247Z,16.40
2022-11-13T13:03:28.061Z,15.10
2022-11-13T13:06:42.372Z,15.90
2022-11-13T13:09:47.469Z,15.90
2022-11-13T13:13:29.361Z,16.00
2022-11-13T13:16:30.067Z,13.90
2022-11-13T13:19:33.822Z,13.30
2022-11-13T13:22:30.380Z,11.70
2022-11-13T13:25:36.539Z,12.10
2022-11-13T13:28:26.587Z,12.10
2022-11-13T13:31:30.905Z,11.80
2022-11-13T13:34:39.101Z,13.20
2022-11-13T13:37:40.272Z,12.90
2022-11-13T13:40:41.960Z,12.40
2022-11-13T13:43:41.007Z,13.60
2022-11-13T13:46:32.574Z,15.80
2022-11-13T13:49:23.023Z,14.30
2022-11-13T13:52:15.299Z,15.40
2022-11-13T13:55:05.509Z,15.40
2022-11-13T13:57:52.401Z,15.20
2022-11-13T14:00:59.078Z,15.50
2022-11-13T14:03:46.190Z,12.40
2022-11-13T14:06:33.235Z,13.20
2022-11-13T14:09:22.967Z,14.70
2022-11-13T14:12:19.087Z,15.00
2022-11-13T14:15:17.143Z,15.70
2022-11-13T14:18:07.473Z,16.40
2022-11-13T14:20:59.252Z,16.50
2022-11-13T14:23:52.430Z,14.90
2022-11-13T14:26:39.118Z,14.60
2022-11-13T14:29:39.243Z,17.40
2022-11-13T14:32:30.622Z,13.30
2022-11-13T14:35:23.014Z,13.20
2022-11-13T14:38:22.346Z,13.20
2022-11-13T14:41:21.314Z,14.10
2022-11-13T14:44:11.835Z,13.30
2022-11-13T14:47:01.478Z,13.30
2022-11-13T14:49:48.782Z,9.80
2022-11-13T14:52:35.543Z,10.30
2022-11-13T14:55:35.071Z,10.70
2022-11-13T14:58:36.597Z,9.80
2022-11-13T15:01:25.268Z,10.30
2022-11-13T15:04:12.120Z,10.60
2022-11-13T15:07:01.218Z,9.50
2022-11-13T15:09:50.704Z,10.00
2022-11-13T15:12:37.661Z,11.70
2022-11-13T15:15:30.575Z,11.50
2022-11-13T15:18:19.791Z,11.90
2022-11-13T15:21:07.005Z,12.40
2022-11-13T15:23:54.074Z,12.70
2022-11-13T15:26:41.443Z,13.50
2022-11-13T15:29:28.683Z,12.80
2022-11-13T15:32:16.272Z,11.90
2022-11-13T15:35:05.234Z,12.00
2022-11-13T15:37:52.742Z,10.60
2022-11-13T15:40:39.918Z,11.00
2022-11-13T15:43:27.316Z,9.70
2022-11-13T15:46:18.046Z,9.10
2022-11-13T15:49:04.888Z,9.20
2022-11-13T15:51:51.834Z,7.90
2022-11-13T15:54:39.186Z,8.50
2022-11-13T15:57:28.237Z,8.80
2022-11-13T16:00:21.669Z,10.10
2022-11-13T16:03:12.113Z,12.10
2022-11-13T16:05:59.859Z,10.60
2022-11-13T16:08:47.314Z,10.20
2022-11-13T16:11:35.086Z,9.70
2022-11-13T16:14:25.023Z,13.30
2022-11-13T16:17:21.020Z,12.10
2022-11-13T16:20:16.962Z,11.90
2022-11-13T16:23:03.913Z,11.10
2022-11-13T16:25:52.580Z,13.20
2022-11-13T16:29:07.326Z,11.70
2022-11-13T16:31:47.192Z,12.70
2022-11-13T16:34:34.247Z,14.50
2022-11-13T16:37:23.637Z,16.00
2022-11-13T16:40:31.081Z,17.20
2022-11-13T16:43:17.959Z,16.90
2022-11-13T16:46:30.770Z,15.20
2022-11-13T16:49:20.345Z,15.70
2022-11-13T16:52:07.710Z,18.70
2022-11-13T16:54:54.495Z,17.20
2022-11-13T16:57:41.410Z,18.30
2022-11-13T17:00:28.262Z,16.70
2022-11-13T17:03:14.822Z,22.00
2022-11-13T17:06:01.466Z,24.50
2022-11-13T17:08:52.472Z,21.70
2022-11-13T17:11:39.190Z,21.70
2022-11-13T17:14:26.955Z,23.90
2022-11-13T17:17:17.171Z,24.90
2022-11-13T17:20:04.555Z,27.20
2022-11-13T17:22:51.451Z,25.00
2022-11-13T17:25:38.544Z,26.30
2022-11-13T17:28:25.508Z,23.30
2022-11-13T17:31:14.896Z,20.30
2022-11-13T17:34:02.021Z,19.40
2022-11-13T17:36:49.354Z,19.50
2022-11-13T17:39:36.606Z,18.70
2022-11-13T17:42:23.893Z,18.10
2022-11-13T17:45:11.216Z,18.30
2022-11-13T17:47:58.630Z,18.80
2022-11-13T17:50:55.498Z,20.30
2022-11-13T17:53:42.338Z,19.00
2022-11-13T17:56:29.558Z,19.10
2022-11-13T17:59:16.222Z,19.90
2022-11-13T18:02:02.894Z,17.80
2022-11-13T18:04:49.695Z,18.80
2022-11-13T18:07:37.893Z,18.60
2022-11-13T18:10:25.369Z,15.70
2022-11-13T18:13:12.318Z,17.40
2022-11-13T18:16:08.366Z,21.20
2022-11-13T18:18:57.106Z,15.70
2022-11-13T18:21:44.183Z,15.10
2022-11-13T18:24:31.671Z,15.70
2022-11-13T18:27:18.770Z,16.00
2022-11-13T18:30:07.190Z,16.10
2022-11-13T18:32:54.205Z,16.00
2022-11-13T18:35:41.206Z,16.80
2022-11-13T18:38:29.090Z,16.50
2022-11-13T18:41:18.472Z,16.30
2022-11-13T18:44:05.615Z,17.90
2022-11-13T18:46:53.416Z,17.50
2022-11-13T18:49:40.947Z,18.60
2022-11-13T18:52:28.106Z,17.30
2022-11-13T18:55:14.700Z,18.30
2022-11-13T18:58:02.307Z,16.20
2022-11-13T19:00:49.210Z,15.90
2022-11-13T19:03:36.673Z,16.30
2022-11-13T19:06:23.908Z,16.80
2022-11-13T19:09:16.730Z,16.80
2022-11-13T19:12:03.857Z,16.80
2022-11-13T19:14:50.533Z,18.80
2022-11-13T19:17:37.245Z,18.60
2022-11-13T19:20:24.091Z,19.00
2022-11-13T19:23:10.836Z,19.60
2022-11-13T19:25:57.588Z,19.90
2022-11-13T19:28:48.594Z,20.30
2022-11-13T19:31:35.601Z,19.40
2022-11-13T19:34:22.683Z,19.60
2022-11-13T19:37:09.497Z,16.40
2022-11-13T19:39:59.182Z,16.10
2022-11-13T19:42:46.398Z,16.20
2022-11-13T19:45:35.931Z,16.50
2022-11-13T19:48:22.997Z,15.20
2022-11-13T19:51:19.293Z,15.50
2022-11-13T19:54:06.589Z,16.40
2022-11-13T19:56:53.714Z,15.90
2022-11-13T19:59:41.134Z,14.40
2022-11-13T20:02:28.414Z,14.50
2022-11-13T20:05:15.581Z,15.40
2022-11-13T20:08:02.626Z,13.00
2022-11-13T20:10:49.738Z,12.70
2022-11-13T20:13:38.273Z,12.80
2022-11-13T20:16:25.984Z,13.20
2022-11-13T20:19:12.796Z,13.20
2022-11-13T20:22:00.059Z,12.70
2022-11-13T20:24:47.307Z,12.50
2022-11-13T20:27:37.272Z,13.10
2022-11-13T20:30:24.307Z,12.00
2022-11-13T20:33:11.052Z,12.10
2022-11-13T20:35:57.643Z,8.70
2022-11-13T20:38:53.163Z,10.10
2022-11-13T20:41:40.445Z,10.40
2022-11-13T20:44:28.711Z,9.90
2022-11-13T20:47:15.830Z,10.40
2022-11-13T20:50:02.906Z,10.80
2022-11-13T20:52:49.550Z,10.60
2022-11-13T20:55:36.098Z,11.20
2022-11-13T20:58:22.929Z,11.20
2022-11-13T21:01:15.029Z,10.50
2022-11-13T21:04:02.206Z,8.10
2022-11-13T21:06:49.529Z,8.10
2022-11-13T21:09:36.612Z,7.40
2022-11-13T21:12:23.454Z,7.20
2022-11-13T21:15:10.682Z,7.40
2022-11-13T21:17:58.618Z,8.40
2022-11-13T21:20:45.672Z,8.40
2022-11-13T21:23:32.470Z,7.80
2022-11-13T21:26:19.513Z,8.10
2022-11-13T21:29:05.986Z,7.60
2022-11-13T21:31:52.403Z,7.60
2022-11-13T21:34:39.122Z,7.80
2022-11-13T21:37:26.458Z,8.50
2022-11-13T21:40:13.543Z,9.50
2022-11-13T21:43:00.422Z,8.60
2022-11-13T21:45:47.200Z,8.80
2022-11-13T21:48:33.821Z,8.20
2022-11-13T21:51:20.789Z,8.50
2022-11-13T21:54:08.704Z,8.50
2022-11-13T21:56:55.264Z,8.20
2022-11-13T21:59:42.003Z,7.00
2022-11-13T22:02:28.514Z,8.70
2022-11-13T22:05:15.275Z,8.50
2022-11-13T22:08:02.279Z,9.80
2022-11-13T22:10:49.460Z,10.30
2022-11-13T22:13:36.977Z,12.00
2022-11-13T22:16:25.310Z,15.30
2022-11-13T22:19:22.628Z,13.00
2022-11-13T22:22:13.669Z,12.40
2022-11-13T22:25:00.497Z,11.40
2022-11-13T22:27:46.891Z,11.70
2022-11-13T22:30:34.126Z,11.30
2022-11-13T22:33:20.562Z,11.50
2022-11-13T22:36:11.640Z,11.80
2022-11-13T22:38:59.194Z,11.20
2022-11-13T22:41:45.858Z,11.20
2022-11-13T22:44:54.289Z,11.00
2022-11-13T22:47:39.395Z,11.70
2022-11-13T22:50:25.855Z,11.30
2022-11-13T22:53:14.791Z,12.50
2022-11-13T22:56:06.083Z,12.20
2022-11-13T22:58:54.470Z,12.20
2022-11-13T23:01:43.175Z,12.70
2022-11-13T23:04:29.857Z,13.50
2022-11-13T23:07:16.652Z,13.10
2022-11-13T23:10:03.609Z,15.30
2022-11-13T23:12:50.191Z,14.20
2022-11-13T23:15:37.434Z,14.50
2022-11-13T23:18:24.238Z,12.80
2022-11-13T23:21:13.692Z,13.50
2022-11-13T23:24:00.652Z,13.20
2022-11-13T23:26:47.444Z,13.40
2022-11-13T23:29:34.151Z,13.20
2022-11-13T23:32:21.205Z,13.50
2022-11-13T23:35:08.204Z,11.70
2022-11-13T23:37:54.868Z,11.60
2022-11-13T23:40:41.669Z,11.90
2022-11-13T23:43:54.206Z,11.40
2022-11-13T23:46:36.705Z,11.40
2022-11-13T23:49:23.265Z,10.90
2022-11-13T23:52:10.098Z,11.50
2022-11-13T23:54:56.560Z,11.30
2022-11-13T23:57:42.949Z,11.00
